Terminal Aerodrome Forecast
Issued by NWS Sioux Falls, SD

Home | Current Version | Previous Version | Text Only | Print | Product List | Glossary Off
Versions: 1 2 3 4 5 6 7 8 9 10 11 12 13 14 15 16

116
FTUS43 KFSD 252320
TAFFSD
TAF
KFSD 252320Z 2600/2624 20013G19KT P6SM BKN250
     FM260200 17006KT P6SM BKN150
     FM260400 12005KT P6SM BKN150
     FM260600 08005KT P6SM OVC150
     FM260800 06005KT P6SM VCTS OVC080CB
     FM261000 04005KT P6SM -TSRA OVC050CB
     FM261400 04006KT P6SM -SHRA VCTS OVC025CB
     FM261800 03011KT P6SM OVC035=

USA.gov is the U.S. government's official web portal to all federal, state and local government web resources and services.